ICAO code: LHPR | IATA code: QGY | AFTN: LHPRZPZX | magyar | english
Wetter: 2018-09-22 00:50 (UTC) | Temperatur: 19 °C | QNH: 1014.3 hPa | Wind: 4.2 m/s | Mehr dazu
Live ATC LHPR
Webcam life

Győr-Pér Airport Meteor data

Metar:
METAR LHPR 212145Z AUTO 16006KT CAVOK 17/14 Q1013 RMK BL


Taf:
TAF LHPR 212000Z NIL


Actual Wetter:
Cloud development not observed or observable
Date stamp: 2018-09-22 00:50:00 UTC
Air Temp:
19.0 °C
 
Dewpoint:
15.2 °C
 
Rel. Humidity:
79%
 
QNH:
1014.3 hPa
 
Wind speed:
4.2 m/s
Max:
5.4 m/s
Wind direction:
250°
 
Precipitation (1 hour):
0.0 mm
 
Visibility:
14900 m
 
RVR:
>1500 m RWY30
 
1st cloud layer quantity:
1 octa
 
1st cloud layer base:
6020 m


Az adatokat szolgáltatja
az Országos Meteorológiai Szolgálat
Flughafen Győr-Pér | H 9099 Pér, Repülőtér | Tel: +36/96/559-200 | Fax: +36/96/559-202

ICAO code: LHPR | IATA code: QGY | AFTN: LHPRZPZX


weboldal tervezés: IRQ